createdAt,value
2018-12-08T00:02:04.466Z,2.70
2018-12-08T00:04:32.021Z,2.53
2018-12-08T00:06:59.576Z,3.13
2018-12-08T00:09:27.641Z,2.60
2018-12-08T00:11:55.204Z,2.87
2018-12-08T00:14:22.776Z,3.00
2018-12-08T00:16:51.153Z,3.00
2018-12-08T00:19:18.726Z,3.33
2018-12-08T00:21:46.959Z,2.63
2018-12-08T00:24:14.512Z,2.90
2018-12-08T00:26:42.580Z,2.83
2018-12-08T00:29:10.141Z,3.23
2018-12-08T00:31:44.755Z,3.57
2018-12-08T00:34:13.628Z,3.27
2018-12-08T00:36:41.205Z,3.50
2018-12-08T00:39:09.175Z,3.00
2018-12-08T00:41:36.791Z,4.37
2018-12-08T00:44:05.360Z,3.43
2018-12-08T00:46:35.055Z,3.27
2018-12-08T00:49:03.158Z,3.30
2018-12-08T00:51:32.096Z,2.93
2018-12-08T00:54:01.626Z,3.50
2018-12-08T00:56:31.051Z,3.27
2018-12-08T00:59:00.346Z,3.47
2018-12-08T01:01:31.462Z,3.57
2018-12-08T01:03:59.013Z,3.83
2018-12-08T01:06:26.567Z,3.83
2018-12-08T01:08:55.143Z,4.27
2018-12-08T01:11:23.499Z,2.83
2018-12-08T01:13:51.055Z,3.03
2018-12-08T01:16:18.600Z,3.13
2018-12-08T01:18:46.147Z,4.30
2018-12-08T01:21:14.276Z,3.87
2018-12-08T01:23:41.831Z,3.53
2018-12-08T01:26:09.388Z,3.67
2018-12-08T01:28:36.946Z,3.53
2018-12-08T01:31:04.508Z,3.40
2018-12-08T01:33:32.060Z,3.70
2018-12-08T01:35:59.619Z,3.10
2018-12-08T01:38:27.222Z,3.60
2018-12-08T01:40:54.764Z,3.03
2018-12-08T01:43:22.321Z,3.47
2018-12-08T01:45:49.881Z,3.27
2018-12-08T01:48:17.434Z,3.20
2018-12-08T01:50:44.986Z,3.30
2018-12-08T01:53:12.548Z,3.20
2018-12-08T01:55:40.110Z,3.27
2018-12-08T01:58:07.663Z,3.03
2018-12-08T02:00:35.216Z,3.43
2018-12-08T02:03:02.771Z,3.00
2018-12-08T02:05:30.751Z,4.50
2018-12-08T02:07:58.302Z,3.83
2018-12-08T02:10:25.884Z,3.00
2018-12-08T02:12:54.434Z,4.57
2018-12-08T02:15:21.985Z,3.40
2018-12-08T02:17:49.545Z,3.50
2018-12-08T02:20:17.103Z,4.17
2018-12-08T02:22:44.665Z,3.13
2018-12-08T02:25:12.218Z,3.57
2018-12-08T02:27:39.783Z,3.77
2018-12-08T02:30:07.339Z,4.13
2018-12-08T02:32:34.905Z,3.80
2018-12-08T02:35:02.459Z,3.37
2018-12-08T02:37:30.741Z,3.03
2018-12-08T02:39:58.759Z,3.10
2018-12-08T02:42:26.322Z,3.93
2018-12-08T02:44:53.941Z,4.40
2018-12-08T02:47:21.499Z,3.53
2018-12-08T02:49:49.052Z,3.10
2018-12-08T02:52:17.021Z,4.20
2018-12-08T02:54:44.585Z,5.20
2018-12-08T02:57:12.692Z,4.47
2018-12-08T02:59:40.248Z,4.03
2018-12-08T03:02:07.804Z,3.47
2018-12-08T03:04:35.356Z,3.93
2018-12-08T03:07:02.915Z,3.73
2018-12-08T03:09:30.467Z,4.57
2018-12-08T03:11:58.042Z,2.83
2018-12-08T03:14:25.608Z,3.37
2018-12-08T03:16:53.161Z,3.10
2018-12-08T03:19:20.719Z,5.00
2018-12-08T03:21:48.281Z,4.00
2018-12-08T03:24:15.835Z,4.03
2018-12-08T03:26:43.386Z,3.43
2018-12-08T03:29:10.940Z,3.07
2018-12-08T03:31:38.508Z,3.57
2018-12-08T03:34:06.768Z,3.97
2018-12-08T03:36:34.343Z,3.73
2018-12-08T03:39:01.909Z,3.80
2018-12-08T03:41:29.467Z,4.70
2018-12-08T03:43:57.020Z,3.27
2018-12-08T03:46:24.580Z,3.97
2018-12-08T03:48:52.139Z,3.73
2018-12-08T03:51:20.657Z,3.93
2018-12-08T03:53:48.259Z,3.70
2018-12-08T03:56:16.849Z,3.73
2018-12-08T03:58:47.434Z,4.10
2018-12-08T04:01:15.402Z,3.30
2018-12-08T04:03:42.957Z,3.83
2018-12-08T04:06:11.376Z,3.60
2018-12-08T04:08:38.932Z,3.97
2018-12-08T04:11:06.488Z,4.13
2018-12-08T04:13:34.047Z,4.30
2018-12-08T04:16:01.608Z,3.43
2018-12-08T04:18:29.167Z,3.50
2018-12-08T04:20:56.719Z,4.40
2018-12-08T04:23:24.287Z,3.30
2018-12-08T04:25:51.848Z,3.80
2018-12-08T04:28:20.276Z,4.10
2018-12-08T04:30:47.932Z,3.20
2018-12-08T04:33:15.614Z,3.93
2018-12-08T04:35:43.187Z,3.63
2018-12-08T04:38:11.293Z,3.67
2018-12-08T04:40:38.847Z,4.13
2018-12-08T04:43:06.409Z,3.63
2018-12-08T04:45:34.308Z,4.27
2018-12-08T04:48:01.861Z,3.80
2018-12-08T04:50:29.421Z,4.10
2018-12-08T04:52:56.978Z,4.53
2018-12-08T04:55:24.525Z,4.53
2018-12-08T04:57:52.083Z,6.03
2018-12-08T05:00:20.618Z,4.70
2018-12-08T05:02:48.176Z,3.83
2018-12-08T05:05:15.846Z,4.60
2018-12-08T05:07:43.399Z,5.40
2018-12-08T05:10:10.960Z,4.17
2018-12-08T05:12:38.513Z,3.93
2018-12-08T05:15:06.063Z,5.03
2018-12-08T05:17:33.623Z,4.50
2018-12-08T05:20:02.580Z,4.47
2018-12-08T05:22:30.128Z,4.97
2018-12-08T05:24:57.688Z,3.77
2018-12-08T05:27:25.248Z,4.13
2018-12-08T05:29:52.799Z,4.70
2018-12-08T05:32:20.368Z,4.70
2018-12-08T05:34:48.181Z,4.40
2018-12-08T05:37:16.575Z,4.07
2018-12-08T05:39:44.127Z,4.10
2018-12-08T05:42:11.789Z,5.07
2018-12-08T05:44:39.356Z,4.43
2018-12-08T05:47:06.916Z,4.53
2018-12-08T05:49:34.473Z,4.57
2018-12-08T05:52:02.023Z,4.80
2018-12-08T05:54:29.574Z,4.50
2018-12-08T05:56:57.123Z,4.13
2018-12-08T05:59:24.673Z,4.63
2018-12-08T06:01:52.224Z,3.90
2018-12-08T06:04:19.779Z,3.83
2018-12-08T06:06:47.339Z,3.83
2018-12-08T06:09:15.880Z,3.73
2018-12-08T06:11:45.098Z,5.30
2018-12-08T06:14:18.473Z,4.57
2018-12-08T06:16:49.000Z,4.33
2018-12-08T06:19:18.867Z,4.33
2018-12-08T06:21:46.417Z,3.93
2018-12-08T06:24:14.031Z,4.03
2018-12-08T06:26:42.647Z,4.17
2018-12-08T06:29:10.737Z,5.20
2018-12-08T06:31:38.297Z,4.17
2018-12-08T06:34:06.414Z,4.27
2018-12-08T06:36:33.971Z,4.90
2018-12-08T06:39:01.535Z,5.37
2018-12-08T06:41:29.088Z,4.73
2018-12-08T06:43:56.650Z,3.77
2018-12-08T06:46:24.205Z,4.53
2018-12-08T06:48:51.764Z,6.37
2018-12-08T06:51:19.586Z,5.33
2018-12-08T06:53:47.156Z,4.27
2018-12-08T06:56:15.296Z,4.13
2018-12-08T06:58:42.957Z,3.93
2018-12-08T07:01:10.618Z,4.70
2018-12-08T07:03:38.183Z,4.40
2018-12-08T07:06:05.739Z,5.10
2018-12-08T07:08:33.286Z,5.40
2018-12-08T07:11:00.836Z,5.93
2018-12-08T07:13:28.928Z,4.97
2018-12-08T07:15:56.500Z,5.77
2018-12-08T07:18:24.058Z,4.80
2018-12-08T07:20:51.627Z,6.33
2018-12-08T07:23:19.197Z,5.17
2018-12-08T07:25:46.763Z,5.30
2018-12-08T07:28:14.315Z,5.13
2018-12-08T07:30:42.663Z,5.03
2018-12-08T07:33:10.219Z,4.60
2018-12-08T07:35:37.776Z,5.40
2018-12-08T07:38:05.319Z,5.73
2018-12-08T07:40:32.865Z,5.73
2018-12-08T07:43:00.417Z,5.03
2018-12-08T07:45:27.976Z,4.30
2018-12-08T07:47:55.528Z,4.70
2018-12-08T07:50:23.087Z,4.73
2018-12-08T07:52:50.663Z,4.73
2018-12-08T07:55:18.232Z,4.53
2018-12-08T07:57:45.831Z,4.40
2018-12-08T08:00:14.090Z,4.80
2018-12-08T08:02:41.993Z,5.37
2018-12-08T08:05:09.546Z,4.67
2018-12-08T08:07:38.643Z,5.27
2018-12-08T08:10:07.290Z,5.17
2018-12-08T08:12:36.103Z,4.90
2018-12-08T08:15:04.068Z,4.63
2018-12-08T08:17:32.174Z,3.93
2018-12-08T08:19:59.731Z,5.00
2018-12-08T08:22:27.287Z,5.53
2018-12-08T08:24:54.846Z,5.10
2018-12-08T08:27:22.933Z,4.87
2018-12-08T08:29:50.843Z,5.27
2018-12-08T08:32:18.399Z,4.40
2018-12-08T08:34:45.962Z,4.23
2018-12-08T08:37:13.589Z,4.80
2018-12-08T08:39:41.147Z,5.10
2018-12-08T08:42:08.698Z,5.27
2018-12-08T08:44:36.433Z,3.97
2018-12-08T08:47:04.017Z,4.43
2018-12-08T08:49:31.584Z,5.30
2018-12-08T08:51:59.144Z,4.87
2018-12-08T08:54:26.700Z,4.10
2018-12-08T08:56:54.257Z,4.57
2018-12-08T08:59:21.808Z,5.03
2018-12-08T09:01:49.375Z,4.53
2018-12-08T09:04:16.930Z,4.07
2018-12-08T09:06:44.534Z,4.27
2018-12-08T09:09:12.125Z,4.47
2018-12-08T09:11:39.684Z,4.10
2018-12-08T09:14:13.184Z,4.37
2018-12-08T09:16:36.827Z,4.00
2018-12-08T09:19:04.395Z,4.93
2018-12-08T09:21:31.951Z,4.77
2018-12-08T09:23:59.522Z,4.63
2018-12-08T09:26:27.069Z,3.43
2018-12-08T09:28:54.624Z,3.00
2018-12-08T09:31:22.177Z,4.47
2018-12-08T09:33:49.733Z,3.80
2018-12-08T09:36:17.387Z,4.37
2018-12-08T09:38:44.939Z,4.30
2018-12-08T09:41:13.102Z,3.53
2018-12-08T09:43:40.651Z,4.70
2018-12-08T09:46:08.204Z,4.97
2018-12-08T09:48:35.767Z,4.03
2018-12-08T09:51:03.343Z,4.27
2018-12-08T09:53:30.888Z,3.77
2018-12-08T09:55:58.444Z,4.23
2018-12-08T09:58:26.010Z,5.17
2018-12-08T10:00:53.563Z,4.63
2018-12-08T10:03:21.115Z,3.83
2018-12-08T10:05:49.084Z,3.73
2018-12-08T10:08:16.632Z,4.23
2018-12-08T10:10:44.180Z,3.90
2018-12-08T10:13:11.740Z,4.27
2018-12-08T10:15:39.294Z,3.37
2018-12-08T10:18:07.328Z,4.27
2018-12-08T10:20:34.893Z,3.03
2018-12-08T10:23:02.449Z,3.10
2018-12-08T10:25:30.002Z,4.27
2018-12-08T10:27:57.556Z,3.47
2018-12-08T10:30:25.115Z,3.50
2018-12-08T10:32:52.676Z,3.40
2018-12-08T10:35:20.232Z,3.47
2018-12-08T10:37:47.792Z,3.07
2018-12-08T10:40:15.352Z,3.70
2018-12-08T10:42:42.920Z,3.60
2018-12-08T10:45:10.476Z,3.60
2018-12-08T10:47:38.024Z,4.27
2018-12-08T10:50:06.474Z,4.70
2018-12-08T10:52:34.028Z,3.70
2018-12-08T10:55:01.578Z,3.00
2018-12-08T10:57:29.135Z,4.13
2018-12-08T10:59:56.688Z,3.57
2018-12-08T11:02:30.388Z,3.67
2018-12-08T11:04:57.944Z,4.30
2018-12-08T11:07:25.511Z,3.97
2018-12-08T11:09:53.077Z,3.77
2018-12-08T11:12:20.631Z,3.10
2018-12-08T11:14:48.316Z,3.23
2018-12-08T11:17:15.876Z,3.00
2018-12-08T11:19:43.661Z,3.93
2018-12-08T11:22:11.216Z,3.43
2018-12-08T11:24:38.771Z,3.30
2018-12-08T11:27:06.337Z,3.50
2018-12-08T11:29:33.916Z,3.83
2018-12-08T11:32:01.469Z,3.27
2018-12-08T11:34:29.019Z,3.50
2018-12-08T11:36:56.569Z,3.63
2018-12-08T11:39:24.394Z,4.00
2018-12-08T11:41:53.495Z,3.27
2018-12-08T11:44:21.222Z,2.97
2018-12-08T11:46:48.948Z,3.27
2018-12-08T11:49:16.511Z,3.23
2018-12-08T11:51:44.064Z,3.43
2018-12-08T11:54:11.624Z,3.60
2018-12-08T11:56:39.178Z,3.87
2018-12-08T11:59:06.737Z,3.37
2018-12-08T12:01:34.296Z,3.00
2018-12-08T12:04:01.848Z,3.10
2018-12-08T12:06:30.180Z,3.63
2018-12-08T12:08:57.741Z,2.93
2018-12-08T12:11:25.877Z,2.63
2018-12-08T12:13:53.451Z,3.23
2018-12-08T12:16:21.004Z,4.23
2018-12-08T12:18:48.580Z,2.23
2018-12-08T12:21:16.137Z,3.20
2018-12-08T12:23:43.774Z,3.90
2018-12-08T12:26:11.331Z,3.03
2018-12-08T12:28:38.894Z,3.60
2018-12-08T12:31:06.460Z,2.77
2018-12-08T12:33:34.027Z,2.60
2018-12-08T12:36:01.595Z,2.70
2018-12-08T12:38:29.172Z,2.93
2018-12-08T12:40:56.900Z,2.93
2018-12-08T12:43:25.090Z,3.50
2018-12-08T12:45:52.735Z,3.00
2018-12-08T12:48:21.018Z,2.60
2018-12-08T12:50:48.574Z,2.90
2018-12-08T12:53:16.132Z,2.90
2018-12-08T12:55:43.695Z,3.13
2018-12-08T12:58:11.249Z,2.83
2018-12-08T13:00:38.794Z,2.57
2018-12-08T13:03:06.357Z,2.93
2018-12-08T13:05:33.910Z,3.07
2018-12-08T13:08:01.936Z,2.93
2018-12-08T13:10:29.502Z,2.87
2018-12-08T13:12:57.056Z,2.50
2018-12-08T13:15:24.608Z,2.17
2018-12-08T13:17:52.268Z,3.63
2018-12-08T13:20:19.818Z,3.60
2018-12-08T13:22:47.381Z,3.03
2018-12-08T13:25:17.741Z,3.57
2018-12-08T13:27:45.290Z,2.93
2018-12-08T13:30:13.233Z,2.57
2018-12-08T13:32:40.799Z,3.50
2018-12-08T13:35:08.384Z,2.53
2018-12-08T13:37:41.179Z,3.77
2018-12-08T13:40:08.725Z,3.10
2018-12-08T13:42:36.284Z,3.80
2018-12-08T13:45:09.699Z,3.23
2018-12-08T13:47:37.317Z,4.20
2018-12-08T13:50:12.074Z,4.07
2018-12-08T13:52:44.139Z,4.33
2018-12-08T13:55:11.689Z,5.47
2018-12-08T13:57:39.244Z,4.10
2018-12-08T14:00:06.818Z,4.23
2018-12-08T14:02:34.367Z,3.73
2018-12-08T14:05:01.942Z,3.97
2018-12-08T14:07:29.500Z,5.00
2018-12-08T14:09:57.043Z,4.23
2018-12-08T14:12:24.599Z,5.53
2018-12-08T14:14:52.421Z,6.13
2018-12-08T14:17:19.974Z,5.07
2018-12-08T14:19:47.538Z,6.30
2018-12-08T14:22:15.115Z,4.53
2018-12-08T14:24:42.664Z,7.13
2018-12-08T14:27:10.208Z,5.80
2018-12-08T14:29:37.761Z,5.00
2018-12-08T14:32:05.352Z,5.77
2018-12-08T14:34:32.905Z,5.83
2018-12-08T14:37:01.056Z,5.93
2018-12-08T14:39:28.610Z,5.97
2018-12-08T14:41:56.754Z,6.33
2018-12-08T14:44:24.342Z,5.50
2018-12-08T14:46:51.891Z,5.43
2018-12-08T14:49:19.449Z,4.73
2018-12-08T14:51:46.998Z,5.67
2018-12-08T14:54:15.717Z,5.30
2018-12-08T14:56:43.738Z,6.53
2018-12-08T14:59:12.513Z,6.03
2018-12-08T15:01:40.335Z,6.57
2018-12-08T15:04:09.023Z,6.07
2018-12-08T15:06:36.827Z,5.97
2018-12-08T15:09:06.263Z,5.10
2018-12-08T15:11:33.811Z,5.33
2018-12-08T15:14:01.368Z,6.97
2018-12-08T15:16:28.922Z,5.87
2018-12-08T15:18:56.479Z,8.30
2018-12-08T15:21:24.043Z,6.87
2018-12-08T15:23:51.605Z,6.70
2018-12-08T15:26:19.183Z,5.97
2018-12-08T15:28:46.736Z,5.87
2018-12-08T15:31:14.285Z,4.53
2018-12-08T15:33:41.856Z,4.77
2018-12-08T15:36:10.158Z,4.93
2018-12-08T15:38:37.708Z,5.10
2018-12-08T15:41:05.262Z,5.50
2018-12-08T15:43:33.384Z,4.90
2018-12-08T15:46:00.944Z,4.30
2018-12-08T15:48:28.488Z,5.00
2018-12-08T15:50:56.080Z,3.90
2018-12-08T15:53:23.624Z,4.00
2018-12-08T15:55:51.245Z,4.43
2018-12-08T15:58:18.803Z,3.77
2018-12-08T16:00:46.351Z,4.50
2018-12-08T16:03:13.979Z,4.03
2018-12-08T16:05:41.944Z,4.50
2018-12-08T16:08:09.492Z,4.00
2018-12-08T16:10:37.048Z,4.47
2018-12-08T16:13:04.616Z,4.97
2018-12-08T16:15:32.171Z,5.33
2018-12-08T16:17:59.728Z,4.93
2018-12-08T16:20:28.160Z,4.13
2018-12-08T16:22:55.757Z,4.80
2018-12-08T16:25:23.304Z,4.40
2018-12-08T16:27:50.901Z,3.93
2018-12-08T16:30:18.454Z,3.73
2018-12-08T16:32:46.004Z,3.67
2018-12-08T16:35:13.672Z,3.57
2018-12-08T16:37:43.880Z,4.17
2018-12-08T16:40:12.277Z,4.70
2018-12-08T16:42:40.112Z,4.03
2018-12-08T16:45:07.660Z,4.47
2018-12-08T16:47:35.226Z,5.23
2018-12-08T16:50:03.076Z,4.87
2018-12-08T16:52:31.176Z,4.10
2018-12-08T16:54:59.536Z,5.90
2018-12-08T16:57:27.102Z,6.33
2018-12-08T16:59:54.656Z,6.43
2018-12-08T17:02:22.208Z,5.87
2018-12-08T17:04:49.763Z,6.37
2018-12-08T17:07:17.320Z,5.73
2018-12-08T17:09:44.907Z,5.80
2018-12-08T17:12:12.465Z,5.13
2018-12-08T17:14:40.025Z,5.77
2018-12-08T17:17:07.580Z,5.53
2018-12-08T17:19:35.162Z,4.83
2018-12-08T17:22:02.719Z,4.83
2018-12-08T17:24:30.269Z,5.67
2018-12-08T17:26:57.857Z,4.47
2018-12-08T17:29:25.403Z,3.73
2018-12-08T17:31:52.960Z,4.83
2018-12-08T17:34:20.528Z,4.00
2018-12-08T17:36:48.093Z,2.33
2018-12-08T17:39:19.506Z,5.23
2018-12-08T17:41:47.081Z,4.70
2018-12-08T17:44:14.634Z,6.13
2018-12-08T17:46:43.146Z,6.63
2018-12-08T17:49:10.700Z,4.40
2018-12-08T17:51:38.353Z,4.87
2018-12-08T17:54:05.900Z,5.47
2018-12-08T17:56:33.465Z,4.73
2018-12-08T17:59:01.035Z,4.20
2018-12-08T18:01:28.594Z,3.20
2018-12-08T18:03:56.650Z,3.77
2018-12-08T18:06:24.200Z,5.37
2018-12-08T18:08:51.753Z,4.37
2018-12-08T18:11:20.751Z,5.30
2018-12-08T18:13:48.304Z,5.37
2018-12-08T18:16:15.876Z,6.13
2018-12-08T18:18:43.438Z,6.80
2018-12-08T18:21:11.059Z,6.97
2018-12-08T18:23:38.673Z,5.53
2018-12-08T18:26:06.519Z,5.73
2018-12-08T18:28:34.080Z,4.00
2018-12-08T18:31:02.309Z,4.00
2018-12-08T18:33:31.702Z,3.90
2018-12-08T18:35:59.270Z,3.27
2018-12-08T18:38:27.379Z,3.40
2018-12-08T18:40:55.719Z,3.03
2018-12-08T18:43:23.508Z,2.63
2018-12-08T18:45:51.150Z,2.23
2018-12-08T18:48:18.754Z,2.10
2018-12-08T18:50:46.313Z,2.60
2018-12-08T18:53:13.867Z,2.20
2018-12-08T18:55:41.459Z,2.50
2018-12-08T18:58:09.044Z,2.23
2018-12-08T19:00:36.604Z,1.77
2018-12-08T19:03:04.170Z,1.90
2018-12-08T19:05:31.726Z,1.80
2018-12-08T19:07:59.273Z,2.07
2018-12-08T19:10:26.827Z,1.80
2018-12-08T19:12:54.384Z,1.90
2018-12-08T19:15:23.418Z,2.13
2018-12-08T19:17:50.976Z,1.80
2018-12-08T19:20:18.539Z,2.40
2018-12-08T19:22:46.101Z,2.40
2018-12-08T19:25:13.680Z,3.23
2018-12-08T19:27:41.229Z,2.60
2018-12-08T19:30:08.783Z,3.43
2018-12-08T19:32:36.352Z,3.30
2018-12-08T19:35:04.074Z,3.53
2018-12-08T19:37:31.636Z,4.37
2018-12-08T19:39:59.204Z,4.80
2018-12-08T19:42:27.689Z,4.93
2018-12-08T19:44:55.893Z,3.77
2018-12-08T19:47:25.028Z,3.60
2018-12-08T19:49:52.585Z,4.53
2018-12-08T19:52:20.131Z,4.13
2018-12-08T19:54:48.253Z,4.43
2018-12-08T19:57:18.120Z,5.27
2018-12-08T19:59:45.670Z,4.33
2018-12-08T20:02:13.245Z,5.10
2018-12-08T20:04:40.812Z,4.47
2018-12-08T20:07:08.369Z,4.97
2018-12-08T20:09:35.925Z,6.43
2018-12-08T20:12:03.488Z,4.87
2018-12-08T20:14:31.034Z,3.90
2018-12-08T20:16:58.584Z,6.10
2018-12-08T20:19:26.139Z,4.80
2018-12-08T20:21:53.687Z,5.20
2018-12-08T20:24:21.245Z,5.53
2018-12-08T20:26:48.792Z,5.37
2018-12-08T20:29:16.408Z,5.30
2018-12-08T20:31:44.972Z,5.57
2018-12-08T20:34:12.525Z,6.27
2018-12-08T20:36:40.084Z,5.47
2018-12-08T20:39:07.648Z,7.77
2018-12-08T20:41:35.207Z,6.70
2018-12-08T20:44:02.764Z,9.80
2018-12-08T20:46:30.312Z,11.07
2018-12-08T20:48:59.175Z,8.73
2018-12-08T20:51:27.708Z,10.07
2018-12-08T20:53:57.236Z,9.83
2018-12-08T20:56:31.352Z,6.77
2018-12-08T20:58:58.928Z,6.40
2018-12-08T21:01:28.354Z,7.63
2018-12-08T21:03:56.970Z,6.40
2018-12-08T21:06:24.882Z,6.50
2018-12-08T21:08:52.442Z,7.40
2018-12-08T21:11:20.018Z,7.43
2018-12-08T21:13:49.148Z,4.47
2018-12-08T21:16:18.189Z,3.83
2018-12-08T21:18:46.661Z,3.50
2018-12-08T21:21:14.218Z,2.83
2018-12-08T21:23:41.780Z,2.37
2018-12-08T21:26:09.337Z,3.20
2018-12-08T21:28:36.929Z,5.47
2018-12-08T21:31:04.490Z,7.63
2018-12-08T21:33:32.151Z,7.77
2018-12-08T21:36:00.060Z,11.03
2018-12-08T21:38:27.617Z,8.20
2018-12-08T21:40:56.176Z,8.87
2018-12-08T21:43:24.778Z,8.00
2018-12-08T21:45:53.736Z,8.33
2018-12-08T21:48:23.900Z,8.47
2018-12-08T21:50:52.853Z,8.80
2018-12-08T21:53:20.563Z,8.40
2018-12-08T21:55:49.632Z,11.30
2018-12-08T21:58:17.478Z,8.27
2018-12-08T22:00:46.675Z,7.57
2018-12-08T22:03:14.230Z,8.10
2018-12-08T22:05:43.914Z,9.50
2018-12-08T22:08:12.811Z,7.93
2018-12-08T22:10:43.299Z,6.80
2018-12-08T22:13:12.779Z,8.23
2018-12-08T22:15:41.583Z,8.10
2018-12-08T22:18:09.132Z,6.57
2018-12-08T22:20:36.687Z,5.60
2018-12-08T22:23:05.054Z,5.70
2018-12-08T22:25:32.603Z,6.60
2018-12-08T22:28:00.480Z,7.13
2018-12-08T22:30:28.024Z,6.50
2018-12-08T22:32:55.583Z,7.03
2018-12-08T22:35:23.676Z,7.33
2018-12-08T22:37:51.244Z,6.60
2018-12-08T22:40:18.796Z,7.07
2018-12-08T22:42:46.352Z,6.57
2018-12-08T22:45:14.526Z,8.10
2018-12-08T22:47:42.075Z,7.20
2018-12-08T22:50:09.701Z,6.60
2018-12-08T22:52:37.330Z,5.93
2018-12-08T22:55:04.986Z,5.77
2018-12-08T22:57:32.569Z,5.47
2018-12-08T23:00:00.135Z,5.90
2018-12-08T23:02:27.699Z,5.97
2018-12-08T23:04:55.248Z,5.20
2018-12-08T23:07:23.150Z,4.70
2018-12-08T23:09:50.707Z,5.63
2018-12-08T23:12:18.269Z,4.77
2018-12-08T23:14:45.824Z,5.00
2018-12-08T23:17:13.424Z,5.60
2018-12-08T23:19:41.528Z,4.80
2018-12-08T23:22:09.075Z,4.93
2018-12-08T23:24:36.796Z,4.80
2018-12-08T23:27:04.655Z,5.37
2018-12-08T23:29:32.208Z,4.80
2018-12-08T23:31:59.762Z,4.03
2018-12-08T23:34:27.316Z,4.17
2018-12-08T23:36:55.127Z,4.40
2018-12-08T23:39:22.888Z,4.90
2018-12-08T23:41:50.444Z,4.73
2018-12-08T23:44:20.352Z,3.83
2018-12-08T23:46:47.913Z,5.73
2018-12-08T23:49:15.481Z,4.97
2018-12-08T23:51:43.045Z,4.10
2018-12-08T23:54:10.601Z,4.60
2018-12-08T23:56:39.252Z,4.23
2018-12-08T23:59:06.800Z,4.03
